sensor_id;sensor_type;location;lat;lon;timestamp;pressure;altitude;pressure_sealevel;temperature;humidity
48614;BME280;34408;51.426;5.444;2024-03-23T00:55:38;101030.66;;;10.76;66.02
48614;BME280;34408;51.426;5.444;2024-03-23T00:58:05;101039.31;;;10.79;66.03
48614;BME280;34408;51.426;5.444;2024-03-23T01:00:30;101035.81;;;10.78;66.06
48614;BME280;34408;51.426;5.444;2024-03-23T01:02:57;101036.84;;;10.77;65.88
48614;BME280;34408;51.426;5.444;2024-03-23T01:05:23;101027.13;;;10.76;66.00
48614;BME280;34408;51.426;5.444;2024-03-23T01:07:50;101027.13;;;10.76;65.73
48614;BME280;34408;51.426;5.444;2024-03-23T01:10:15;101034.38;;;10.75;65.81
48614;BME280;34408;51.426;5.444;2024-03-23T01:12:44;101031.09;;;10.73;65.57
48614;BME280;34408;51.426;5.444;2024-03-23T01:15:09;101016.00;;;10.72;65.42
48614;BME280;34408;51.426;5.444;2024-03-23T01:17:36;101010.84;;;10.71;65.50
48614;BME280;34408;51.426;5.444;2024-03-23T01:20:02;100999.28;;;10.70;65.57
48614;BME280;34408;51.426;5.444;2024-03-23T01:22:29;101004.44;;;10.72;65.61
48614;BME280;34408;51.426;5.444;2024-03-23T01:24:55;101008.16;;;10.71;65.39
48614;BME280;34408;51.426;5.444;2024-03-23T01:27:22;101000.91;;;10.71;65.57
48614;BME280;34408;51.426;5.444;2024-03-23T01:29:50;101014.56;;;10.70;65.35
48614;BME280;34408;51.426;5.444;2024-03-23T01:32:17;101012.94;;;10.69;65.23
48614;BME280;34408;51.426;5.444;2024-03-23T01:34:44;101014.78;;;10.68;65.27
48614;BME280;34408;51.426;5.444;2024-03-23T01:37:10;100999.72;;;10.67;65.13
48614;BME280;34408;51.426;5.444;2024-03-23T01:39:36;101008.81;;;10.66;65.13
48614;BME280;34408;51.426;5.444;2024-03-23T01:42:03;101010.50;;;10.61;65.24
48614;BME280;34408;51.426;5.444;2024-03-23T01:44:29;101025.16;;;10.65;65.16
48614;BME280;34408;51.426;5.444;2024-03-23T01:46:57;101021.66;;;10.64;65.03
48614;BME280;34408;51.426;5.444;2024-03-23T01:49:23;101009.03;;;10.65;65.02
48614;BME280;34408;51.426;5.444;2024-03-23T01:51:50;100998.72;;;10.62;64.95
48614;BME280;34408;51.426;5.444;2024-03-23T01:54:16;100997.28;;;10.59;65.08
48614;BME280;34408;51.426;5.444;2024-03-23T01:56:43;100992.13;;;10.58;65.05
48614;BME280;34408;51.426;5.444;2024-03-23T01:59:09;101002.88;;;10.58;65.26
48614;BME280;34408;51.426;5.444;2024-03-23T02:01:36;101008.25;;;10.58;65.04
48614;BME280;34408;51.426;5.444;2024-03-23T02:04:03;101002.28;;;10.56;65.10
48614;BME280;34408;51.426;5.444;2024-03-23T02:06:30;101004.34;;;10.54;65.16
48614;BME280;34408;51.426;5.444;2024-03-23T02:08:56;101006.44;;;10.52;64.97
48614;BME280;34408;51.426;5.444;2024-03-23T02:11:23;101021.13;;;10.49;64.99
48614;BME280;34408;51.426;5.444;2024-03-23T02:13:49;101021.94;;;10.50;65.19
48614;BME280;34408;51.426;5.444;2024-03-23T02:16:16;101026.13;;;10.46;65.03
48614;BME280;34408;51.426;5.444;2024-03-23T02:18:42;101025.06;;;10.47;65.10
48614;BME280;34408;51.426;5.444;2024-03-23T02:21:10;101018.28;;;10.44;65.26
48614;BME280;34408;51.426;5.444;2024-03-23T02:23:38;101010.44;;;10.42;64.99
48614;BME280;34408;51.426;5.444;2024-03-23T02:26:04;101004.22;;;10.42;65.17
48614;BME280;34408;51.426;5.444;2024-03-23T02:28:31;100993.69;;;10.40;65.20
48614;BME280;34408;51.426;5.444;2024-03-23T02:30:57;100979.22;;;10.41;65.27
48614;BME280;34408;51.426;5.444;2024-03-23T02:33:24;100976.53;;;10.41;65.37
48614;BME280;34408;51.426;5.444;2024-03-23T02:35:50;100969.31;;;10.42;65.21
48614;BME280;34408;51.426;5.444;2024-03-23T02:38:16;100971.16;;;10.41;65.28
48614;BME280;34408;51.426;5.444;2024-03-23T02:40:43;100971.16;;;10.41;65.20
48614;BME280;34408;51.426;5.444;2024-03-23T02:43:10;100971.16;;;10.41;65.28
48614;BME280;34408;51.426;5.444;2024-03-23T02:45:36;100980.88;;;10.42;65.19
48614;BME280;34408;51.426;5.444;2024-03-23T02:48:04;100969.53;;;10.40;65.21
48614;BME280;34408;51.426;5.444;2024-03-23T02:50:30;100964.97;;;10.41;65.42
48614;BME280;34408;51.426;5.444;2024-03-23T02:52:57;100973.03;;;10.41;65.28
48614;BME280;34408;51.426;5.444;2024-03-23T02:55:22;100963.34;;;10.40;65.42
48614;BME280;34408;51.426;5.444;2024-03-23T02:57:50;100964.97;;;10.41;65.23
48614;BME280;34408;51.426;5.444;2024-03-23T03:00:16;100955.94;;;10.35;65.22
48614;BME280;34408;51.426;5.444;2024-03-23T03:02:43;100964.41;;;10.39;65.25
48614;BME280;34408;51.426;5.444;2024-03-23T03:05:09;100964.41;;;10.39;65.25
48614;BME280;34408;51.426;5.444;2024-03-23T03:07:38;100966.25;;;10.38;65.03
48614;BME280;34408;51.426;5.444;2024-03-23T03:10:06;100950.63;;;10.29;65.21
48614;BME280;34408;51.426;5.444;2024-03-23T03:12:36;100958.47;;;10.30;65.10
48614;BME280;34408;51.426;5.444;2024-03-23T03:15:05;100968.94;;;10.38;65.09
48614;BME280;34408;51.426;5.444;2024-03-23T03:17:32;100961.31;;;10.35;64.94
48614;BME280;34408;51.426;5.444;2024-03-23T03:19:57;100969.16;;;10.37;65.13
48614;BME280;34408;51.426;5.444;2024-03-23T03:22:25;100966.69;;;10.35;65.02
48614;BME280;34408;51.426;5.444;2024-03-23T03:24:51;100972.06;;;10.35;64.87
48614;BME280;34408;51.426;5.444;2024-03-23T03:27:17;100973.94;;;10.35;64.66
48614;BME280;34408;51.426;5.444;2024-03-23T03:29:43;100972.28;;;10.34;64.80
48614;BME280;34408;51.426;5.444;2024-03-23T03:32:11;100971.69;;;10.32;64.74
48614;BME280;34408;51.426;5.444;2024-03-23T03:34:37;100964.66;;;10.31;64.75
48614;BME280;34408;51.426;5.444;2024-03-23T03:37:04;100961.16;;;10.30;64.89
48614;BME280;34408;51.426;5.444;2024-03-23T03:39:30;100965.69;;;10.30;64.70
48614;BME280;34408;51.426;5.444;2024-03-23T03:41:57;100964.28;;;10.27;64.74
48614;BME280;34408;51.426;5.444;2024-03-23T03:44:23;100963.44;;;10.27;64.54
48614;BME280;34408;51.426;5.444;2024-03-23T03:46:49;100959.94;;;10.26;64.60
48614;BME280;34408;51.426;5.444;2024-03-23T03:49:17;100954.19;;;10.23;64.60
48614;BME280;34408;51.426;5.444;2024-03-23T03:51:43;100948.81;;;10.23;64.59
48614;BME280;34408;51.426;5.444;2024-03-23T03:54:09;100947.16;;;10.22;64.71
48614;BME280;34408;51.426;5.444;2024-03-23T03:56:36;100944.06;;;10.18;64.71
48614;BME280;34408;51.426;5.444;2024-03-23T03:59:02;100950.88;;;10.21;64.69
48614;BME280;34408;51.426;5.444;2024-03-23T04:01:29;100952.94;;;10.19;64.63
48614;BME280;34408;51.426;5.444;2024-03-23T04:03:55;100947.56;;;10.19;64.36
48614;BME280;34408;51.426;5.444;2024-03-23T04:06:23;100950.47;;;10.17;64.47
48614;BME280;34408;51.426;5.444;2024-03-23T04:08:49;100954.19;;;10.16;64.46
48614;BME280;34408;51.426;5.444;2024-03-23T04:11:16;100952.53;;;10.15;64.51
48614;BME280;34408;51.426;5.444;2024-03-23T04:13:42;100954.63;;;10.13;64.46
48614;BME280;34408;51.426;5.444;2024-03-23T04:16:09;100938.97;;;10.03;64.65
48614;BME280;34408;51.426;5.444;2024-03-23T04:18:35;100953.19;;;10.10;64.50
48614;BME280;34408;51.426;5.444;2024-03-23T04:21:02;100956.69;;;10.11;64.19
48614;BME280;34408;51.426;5.444;2024-03-23T04:23:29;100955.06;;;10.10;64.19
48614;BME280;34408;51.426;5.444;2024-03-23T04:26:03;100952.78;;;10.07;64.27
48614;BME280;34408;51.426;5.444;2024-03-23T04:28:28;100956.31;;;10.07;64.35
48614;BME280;34408;51.426;5.444;2024-03-23T04:30:55;100953.63;;;10.07;64.39
48614;BME280;34408;51.426;5.444;2024-03-23T04:33:21;100948.47;;;10.06;64.34
48614;BME280;34408;51.426;5.444;2024-03-23T04:35:49;100950.31;;;10.05;64.30
48614;BME280;34408;51.426;5.444;2024-03-23T04:38:14;100951.38;;;10.04;64.10
48614;BME280;34408;51.426;5.444;2024-03-23T04:40:43;100940.66;;;9.98;64.29
48614;BME280;34408;51.426;5.444;2024-03-23T04:43:10;100947.25;;;10.02;64.18
48614;BME280;34408;51.426;5.444;2024-03-23T04:45:36;100955.31;;;10.02;64.35
48614;BME280;34408;51.426;5.444;2024-03-23T04:48:04;100952.84;;;10.00;64.40
48614;BME280;34408;51.426;5.444;2024-03-23T04:50:30;100953.88;;;9.99;64.53
48614;BME280;34408;51.426;5.444;2024-03-23T04:52:56;100956.78;;;9.98;64.38
48614;BME280;34408;51.426;5.444;2024-03-23T04:55:23;100954.09;;;9.98;64.48
48614;BME280;34408;51.426;5.444;2024-03-23T04:57:51;100962.56;;;9.95;64.58
48614;BME280;34408;51.426;5.444;2024-03-23T05:00:17;100931.25;;;9.82;64.43
48614;BME280;34408;51.426;5.444;2024-03-23T05:02:44;100962.56;;;9.95;64.39
48614;BME280;34408;51.426;5.444;2024-03-23T05:05:11;100960.09;;;9.93;64.62
48614;BME280;34408;51.426;5.444;2024-03-23T05:07:37;100946.91;;;9.92;64.41
48614;BME280;34408;51.426;5.444;2024-03-23T05:10:05;100949.56;;;9.92;64.63
48614;BME280;34408;51.426;5.444;2024-03-23T05:12:31;100945.25;;;9.91;64.41
48614;BME280;34408;51.426;5.444;2024-03-23T05:14:59;100950.63;;;9.91;64.55
48614;BME280;34408;51.426;5.444;2024-03-23T05:17:25;100948.16;;;9.89;64.41
48614;BME280;34408;51.426;5.444;2024-03-23T05:19:52;100948.38;;;9.88;64.40
48614;BME280;34408;51.426;5.444;2024-03-23T05:22:17;100950.00;;;9.89;64.39
48614;BME280;34408;51.426;5.444;2024-03-23T05:24:45;100954.78;;;9.87;64.60
48614;BME280;34408;51.426;5.444;2024-03-23T05:27:10;100963.84;;;9.86;64.51
48614;BME280;34408;51.426;5.444;2024-03-23T05:29:37;100959.53;;;9.85;64.28
48614;BME280;34408;51.426;5.444;2024-03-23T05:32:05;100947.97;;;9.84;64.54
48614;BME280;34408;51.426;5.444;2024-03-23T05:34:32;100953.56;;;9.83;64.44
48614;BME280;34408;51.426;5.444;2024-03-23T05:36:58;100956.22;;;9.83;64.26
48614;BME280;34408;51.426;5.444;2024-03-23T05:39:25;100953.75;;;9.81;64.13
48614;BME280;34408;51.426;5.444;2024-03-23T05:41:50;100949.66;;;9.78;64.10
48614;BME280;34408;51.426;5.444;2024-03-23T05:44:18;100932.16;;;9.69;64.24
48614;BME280;34408;51.426;5.444;2024-03-23T05:46:44;100950.69;;;9.77;64.33
48614;BME280;34408;51.426;5.444;2024-03-23T05:49:15;100956.06;;;9.77;64.28
48614;BME280;34408;51.426;5.444;2024-03-23T05:51:42;100951.72;;;9.76;64.28
48614;BME280;34408;51.426;5.444;2024-03-23T05:54:12;100945.75;;;9.74;64.13
48614;BME280;34408;51.426;5.444;2024-03-23T05:56:38;100942.25;;;9.74;64.62
48614;BME280;34408;51.426;5.444;2024-03-23T05:59:05;100938.72;;;9.73;64.42
48614;BME280;34408;51.426;5.444;2024-03-23T06:01:32;100937.09;;;9.72;64.37
48614;BME280;34408;51.426;5.444;2024-03-23T06:03:59;100938.13;;;9.71;64.08
48614;BME280;34408;51.426;5.444;2024-03-23T06:06:28;100937.50;;;9.69;64.30
48614;BME280;34408;51.426;5.444;2024-03-23T06:08:56;100934.00;;;9.69;64.21
48614;BME280;34408;51.426;5.444;2024-03-23T06:11:22;100948.66;;;9.66;63.99
48614;BME280;34408;51.426;5.444;2024-03-23T06:13:48;100936.53;;;9.57;64.05
48614;BME280;34408;51.426;5.444;2024-03-23T06:16:16;100959.63;;;9.65;64.00
48614;BME280;34408;51.426;5.444;2024-03-23T06:18:41;100966.03;;;9.64;63.98
48614;BME280;34408;51.426;5.444;2024-03-23T06:21:13;100961.69;;;9.63;64.13
48614;BME280;34408;51.426;5.444;2024-03-23T06:23:41;100962.13;;;9.60;63.95
48614;BME280;34408;51.426;5.444;2024-03-23T06:26:08;100966.88;;;9.58;63.99
48614;BME280;34408;51.426;5.444;2024-03-23T06:28:34;100971.41;;;9.57;63.90
48614;BME280;34408;51.426;5.444;2024-03-23T06:31:01;100968.72;;;9.57;64.29
48614;BME280;34408;51.426;5.444;2024-03-23T06:33:28;100968.94;;;9.56;64.09
48614;BME280;34408;51.426;5.444;2024-03-23T06:35:54;100956.34;;;9.56;64.24
48614;BME280;34408;51.426;5.444;2024-03-23T06:38:20;100966.03;;;9.57;64.38
48614;BME280;34408;51.426;5.444;2024-03-23T06:40:48;100957.78;;;9.59;64.02
48614;BME280;34408;51.426;5.444;2024-03-23T06:43:16;100957.59;;;9.54;64.39
48614;BME280;34408;51.426;5.444;2024-03-23T06:45:43;100967.69;;;9.58;64.34
48614;BME280;34408;51.426;5.444;2024-03-23T06:48:08;100969.75;;;9.56;63.94
48614;BME280;34408;51.426;5.444;2024-03-23T06:50:35;100973.69;;;9.54;64.06
48614;BME280;34408;51.426;5.444;2024-03-23T06:53:01;100969.38;;;9.53;63.90
48614;BME280;34408;51.426;5.444;2024-03-23T06:55:31;100965.66;;;9.54;63.93
48614;BME280;34408;51.426;5.444;2024-03-23T06:57:58;100970.81;;;9.55;63.96
48614;BME280;34408;51.426;5.444;2024-03-23T07:00:24;100973.09;;;9.52;64.19
48614;BME280;34408;51.426;5.444;2024-03-23T07:02:51;100974.13;;;9.51;63.89
48614;BME280;34408;51.426;5.444;2024-03-23T07:05:18;100975.59;;;9.40;64.12
48614;BME280;34408;51.426;5.444;2024-03-23T07:07:43;100981.78;;;9.40;64.26
48614;BME280;34408;51.426;5.444;2024-03-23T07:10:10;100976.63;;;9.39;64.00
48614;BME280;34408;51.426;5.444;2024-03-23T07:12:36;100978.91;;;9.42;64.23
48614;BME280;34408;51.426;5.444;2024-03-23T07:15:05;100984.66;;;9.45;63.90
48614;BME280;34408;51.426;5.444;2024-03-23T07:17:31;100982.59;;;9.48;64.25
48614;BME280;34408;51.426;5.444;2024-03-23T07:20:00;100977.22;;;9.48;64.45
48614;BME280;34408;51.426;5.444;2024-03-23T07:22:27;100976.81;;;9.51;64.40
48614;BME280;34408;51.426;5.444;2024-03-23T07:24:54;100985.88;;;9.50;64.37
48614;BME280;34408;51.426;5.444;2024-03-23T07:27:20;100988.78;;;9.48;64.14
48614;BME280;34408;51.426;5.444;2024-03-23T07:29:47;100984.84;;;9.51;64.26
48614;BME280;34408;51.426;5.444;2024-03-23T07:32:14;100989.59;;;9.49;64.53
48614;BME280;34408;51.426;5.444;2024-03-23T07:34:41;100985.88;;;9.50;63.94
48614;BME280;34408;51.426;5.444;2024-03-23T07:37:09;100982.16;;;9.51;64.05
48614;BME280;34408;51.426;5.444;2024-03-23T07:39:39;100991.25;;;9.50;64.38
48614;BME280;34408;51.426;5.444;2024-03-23T07:42:05;100986.50;;;9.52;64.06
48614;BME280;34408;51.426;5.444;2024-03-23T07:44:32;100982.16;;;9.51;64.22
48614;BME280;34408;51.426;5.444;2024-03-23T07:46:58;100987.09;;;9.54;64.46
48614;BME280;34408;51.426;5.444;2024-03-23T07:49:26;100979.06;;;9.54;64.22
48614;BME280;34408;51.426;5.444;2024-03-23T07:51:52;100980.72;;;9.55;64.75
48614;BME280;34408;51.426;5.444;2024-03-23T07:54:19;100978.84;;;9.55;64.22
48614;BME280;34408;51.426;5.444;2024-03-23T07:56:45;100979.47;;;9.57;64.69
48614;BME280;34408;51.426;5.444;2024-03-23T07:59:12;100984.22;;;9.55;64.41
48614;BME280;34408;51.426;5.444;2024-03-23T08:01:38;100980.06;;;9.59;64.56
48614;BME280;34408;51.426;5.444;2024-03-23T08:04:05;100978.22;;;9.60;64.28
48614;BME280;34408;51.426;5.444;2024-03-23T08:06:32;100978.03;;;9.55;64.50
48614;BME280;34408;51.426;5.444;2024-03-23T08:09:00;100976.19;;;9.49;64.85
48614;BME280;34408;51.426;5.444;2024-03-23T08:11:26;100983.00;;;9.51;64.78
48614;BME280;34408;51.426;5.444;2024-03-23T08:13:53;100981.97;;;9.45;64.82
48614;BME280;34408;51.426;5.444;2024-03-23T08:16:19;100986.72;;;9.43;65.06
48614;BME280;34408;51.426;5.444;2024-03-23T08:18:46;100975.78;;;9.45;64.63
48614;BME280;34408;51.426;5.444;2024-03-23T08:21:12;100974.13;;;9.44;64.43
48614;BME280;34408;51.426;5.444;2024-03-23T08:23:40;100970.41;;;9.45;64.83
48614;BME280;34408;51.426;5.444;2024-03-23T08:26:07;100977.00;;;9.49;64.43
48614;BME280;34408;51.426;5.444;2024-03-23T08:28:34;100970.81;;;9.49;64.15
48614;BME280;34408;51.426;5.444;2024-03-23T08:31:00;100966.47;;;9.54;64.34
48614;BME280;34408;51.426;5.444;2024-03-23T08:33:27;100970.22;;;9.46;64.99
48614;BME280;34408;51.426;5.444;2024-03-23T08:35:54;100973.09;;;9.52;64.62
48614;BME280;34408;51.426;5.444;2024-03-23T08:38:22;100969.38;;;9.53;64.67
48614;BME280;34408;51.426;5.444;2024-03-23T08:40:56;100953.91;;;9.48;64.11
48614;BME280;34408;51.426;5.444;2024-03-23T08:43:23;100962.53;;;9.57;64.11
48614;BME280;34408;51.426;5.444;2024-03-23T08:45:49;100973.88;;;9.59;63.84
48614;BME280;34408;51.426;5.444;2024-03-23T08:48:16;100965.41;;;9.62;63.78
48614;BME280;34408;51.426;5.444;2024-03-23T08:50:42;100966.84;;;9.64;63.63
48614;BME280;34408;51.426;5.444;2024-03-23T08:53:08;100957.94;;;9.70;63.90
48614;BME280;34408;51.426;5.444;2024-03-23T08:55:34;100951.13;;;9.74;63.47
48614;BME280;34408;51.426;5.444;2024-03-23T08:58:03;100963.72;;;9.74;63.53
48614;BME280;34408;51.426;5.444;2024-03-23T09:00:29;100974.22;;;9.75;63.58
48614;BME280;34408;51.426;5.444;2024-03-23T09:02:57;100982.06;;;9.77;63.52
48614;BME280;34408;51.426;5.444;2024-03-23T09:05:23;100977.94;;;9.74;63.54
48614;BME280;34408;51.426;5.444;2024-03-23T09:07:50;100980.41;;;9.76;62.98
48614;BME280;34408;51.426;5.444;2024-03-23T09:10:16;101000.91;;;9.64;58.88
48614;BME280;34408;51.426;5.444;2024-03-23T09:12:43;100995.84;;;9.29;58.45
48614;BME280;34408;51.426;5.444;2024-03-23T09:15:10;100991.13;;;9.05;58.08
48614;BME280;34408;51.426;5.444;2024-03-23T09:17:37;100989.50;;;8.91;60.01
48614;BME280;34408;51.426;5.444;2024-03-23T09:20:04;100981.06;;;8.87;60.58
48614;BME280;34408;51.426;5.444;2024-03-23T09:22:31;100984.97;;;8.91;61.12
48614;BME280;34408;51.426;5.444;2024-03-23T09:24:57;100980.22;;;9.00;61.02
48614;BME280;34408;51.426;5.444;2024-03-23T09:27:23;100983.50;;;9.02;61.53
48614;BME280;34408;51.426;5.444;2024-03-23T09:29:49;100987.84;;;9.09;61.86
48614;BME280;34408;51.426;5.444;2024-03-23T09:32:17;100984.72;;;9.19;61.42
48614;BME280;34408;51.426;5.444;2024-03-23T09:34:43;100975.00;;;9.25;62.22
48614;BME280;34408;51.426;5.444;2024-03-23T09:37:10;100977.06;;;9.29;62.04
48614;BME280;34408;51.426;5.444;2024-03-23T09:39:37;100983.44;;;9.35;62.08
48614;BME280;34408;51.426;5.444;2024-03-23T09:42:04;100977.88;;;9.36;62.16
48614;BME280;34408;51.426;5.444;2024-03-23T09:44:31;100984.03;;;9.43;62.05
48614;BME280;34408;51.426;5.444;2024-03-23T09:46:58;100972.28;;;9.44;61.99
48614;BME280;34408;51.426;5.444;2024-03-23T09:49:26;100965.66;;;9.47;62.31
48614;BME280;34408;51.426;5.444;2024-03-23T09:51:53;100966.69;;;9.53;62.10
48614;BME280;34408;51.426;5.444;2024-03-23T09:54:20;100964.22;;;9.51;62.22
48614;BME280;34408;51.426;5.444;2024-03-23T09:56:48;100972.44;;;9.56;62.02
48614;BME280;34408;51.426;5.444;2024-03-23T09:59:14;100977.59;;;9.58;62.22
48614;BME280;34408;51.426;5.444;2024-03-23T10:01:41;100984.81;;;9.57;62.80
48614;BME280;34408;51.426;5.444;2024-03-23T10:04:07;100988.75;;;9.55;63.05
48614;BME280;34408;51.426;5.444;2024-03-23T10:06:35;100990.41;;;9.56;62.73
48614;BME280;34408;51.426;5.444;2024-03-23T10:09:03;100996.41;;;9.51;62.83
48614;BME280;34408;51.426;5.444;2024-03-23T10:11:43;100944.25;;;9.34;62.95
48614;BME280;34408;51.426;5.444;2024-03-23T10:14:09;100970.03;;;9.35;62.50
48614;BME280;34408;51.426;5.444;2024-03-23T10:16:36;100973.34;;;9.30;62.06
48614;BME280;34408;51.426;5.444;2024-03-23T10:19:02;100962.63;;;9.30;61.94
48614;BME280;34408;51.426;5.444;2024-03-23T10:21:29;100954.16;;;9.33;61.59
48614;BME280;34408;51.426;5.444;2024-03-23T10:23:57;100953.53;;;9.31;61.48
48614;BME280;34408;51.426;5.444;2024-03-23T10:26:34;100958.09;;;9.31;61.94
48614;BME280;34408;51.426;5.444;2024-03-23T10:29:02;100962.41;;;9.32;61.40
48614;BME280;34408;51.426;5.444;2024-03-23T10:31:33;100952.50;;;9.32;61.67
48614;BME280;34408;51.426;5.444;2024-03-23T10:34:02;100956.03;;;9.33;61.97
48614;BME280;34408;51.426;5.444;2024-03-23T10:36:29;100955.59;;;9.36;62.10
48614;BME280;34408;51.426;5.444;2024-03-23T10:38:57;100949.63;;;9.34;61.65
48614;BME280;34408;51.426;5.444;2024-03-23T10:41:26;100957.44;;;9.35;61.70
48614;BME280;34408;51.426;5.444;2024-03-23T10:43:53;100957.44;;;9.35;61.66
48614;BME280;34408;51.426;5.444;2024-03-23T10:46:21;100962.41;;;9.38;61.67
48614;BME280;34408;51.426;5.444;2024-03-23T10:48:48;100949.19;;;9.37;61.67
48614;BME280;34408;51.426;5.444;2024-03-23T10:51:14;100947.34;;;9.37;61.43
48614;BME280;34408;51.426;5.444;2024-03-23T10:53:41;100945.69;;;9.36;61.51
48614;BME280;34408;51.426;5.444;2024-03-23T10:56:09;100945.06;;;9.41;61.59
48614;BME280;34408;51.426;5.444;2024-03-23T10:58:39;100945.47;;;9.44;61.57
48614;BME280;34408;51.426;5.444;2024-03-23T11:01:06;100934.94;;;9.43;61.65
48614;BME280;34408;51.426;5.444;2024-03-23T11:03:34;100941.75;;;9.45;61.76
48614;BME280;34408;51.426;5.444;2024-03-23T11:06:00;100940.91;;;9.45;61.93
48614;BME280;34408;51.426;5.444;2024-03-23T11:08:33;100938.84;;;9.47;62.17
48614;BME280;34408;51.426;5.444;2024-03-23T11:11:14;100945.66;;;9.50;61.98
48614;BME280;34408;51.426;5.444;2024-03-23T11:13:41;100933.69;;;9.45;62.31
48614;BME280;34408;51.426;5.444;2024-03-23T11:16:17;100947.69;;;9.54;62.30
48614;BME280;34408;51.426;5.444;2024-03-23T11:18:48;100956.97;;;9.58;62.32
48614;BME280;34408;51.426;5.444;2024-03-23T11:24:14;100930.97;;;9.52;61.47
48614;BME280;34408;51.426;5.444;2024-03-23T11:26:41;100961.47;;;9.64;60.85
48614;BME280;34408;51.426;5.444;2024-03-23T11:29:12;100940.00;;;9.64;60.62
48614;BME280;34408;51.426;5.444;2024-03-23T11:31:38;100939.63;;;9.61;60.45
48614;BME280;34408;51.426;5.444;2024-03-23T11:34:06;100946.66;;;9.55;60.50
48614;BME280;34408;51.426;5.444;2024-03-23T11:36:32;100959.25;;;9.55;60.36
48614;BME280;34408;51.426;5.444;2024-03-23T11:38:59;100947.09;;;9.45;60.44
48614;BME280;34408;51.426;5.444;2024-03-23T11:41:47;100961.91;;;9.61;59.79
48614;BME280;34408;51.426;5.444;2024-03-23T11:44:17;100953.28;;;9.53;59.36
48614;BME280;34408;51.426;5.444;2024-03-23T11:46:43;100963.81;;;9.48;58.92
48614;BME280;34408;51.426;5.444;2024-03-23T11:49:28;100985.28;;;9.48;59.24
48614;BME280;34408;51.426;5.444;2024-03-23T11:51:55;100981.38;;;9.43;58.44
48614;BME280;34408;51.426;5.444;2024-03-23T11:54:23;100997.88;;;9.40;59.30
48614;BME280;34408;51.426;5.444;2024-03-23T11:56:58;100978.06;;;9.41;58.85
48614;BME280;34408;51.426;5.444;2024-03-23T11:59:33;100977.25;;;9.41;58.81
48614;BME280;34408;51.426;5.444;2024-03-23T12:01:59;100981.38;;;9.43;58.63
48614;BME280;34408;51.426;5.444;2024-03-23T12:04:27;100980.09;;;9.53;59.10
48614;BME280;34408;51.426;5.444;2024-03-23T12:07:13;100971.47;;;9.44;59.21
48614;BME280;34408;51.426;5.444;2024-03-23T12:09:41;101000.53;;;9.54;59.23
48614;BME280;34408;51.426;5.444;2024-03-23T12:12:14;100989.78;;;9.54;59.78
48614;BME280;34408;51.426;5.444;2024-03-23T12:14:42;100977.63;;;9.51;59.91
48614;BME280;34408;51.426;5.444;2024-03-23T12:17:12;100956.38;;;9.50;59.72
48614;BME280;34408;51.426;5.444;2024-03-23T12:19:39;100959.28;;;9.48;59.99
48614;BME280;34408;51.426;5.444;2024-03-23T12:22:07;100961.75;;;9.50;59.79
48614;BME280;34408;51.426;5.444;2024-03-23T12:24:34;100945.25;;;9.46;60.71
48614;BME280;34408;51.426;5.444;2024-03-23T12:27:02;100939.06;;;9.45;60.09
48614;BME280;34408;51.426;5.444;2024-03-23T12:29:32;100943.38;;;9.46;60.76
48614;BME280;34408;51.426;5.444;2024-03-23T12:32:00;100939.25;;;9.44;60.89
48614;BME280;34408;51.426;5.444;2024-03-23T12:34:26;100937.63;;;9.43;60.83
48614;BME280;34408;51.426;5.444;2024-03-23T12:36:53;100929.78;;;9.41;61.05
48614;BME280;34408;51.426;5.444;2024-03-23T12:39:18;100929.78;;;9.41;60.97
48614;BME280;34408;51.426;5.444;2024-03-23T12:41:46;100941.34;;;9.42;60.87
48614;BME280;34408;51.426;5.444;2024-03-23T12:44:12;100939.25;;;9.44;60.66
48614;BME280;34408;51.426;5.444;2024-03-23T12:46:40;100921.75;;;9.41;60.01
48614;BME280;34408;51.426;5.444;2024-03-23T12:49:06;100928.13;;;9.47;60.03
48614;BME280;34408;51.426;5.444;2024-03-23T12:51:33;100907.25;;;9.49;59.19
48614;BME280;34408;51.426;5.444;2024-03-23T12:53:59;100910.94;;;9.55;58.60
48614;BME280;34408;51.426;5.444;2024-03-23T12:56:26;100914.25;;;9.57;59.08
48614;BME280;34408;51.426;5.444;2024-03-23T12:58:53;100908.66;;;9.58;58.46
48614;BME280;34408;51.426;5.444;2024-03-23T13:01:22;100920.44;;;9.57;59.14
48614;BME280;34408;51.426;5.444;2024-03-23T13:03:50;100917.28;;;9.67;58.29
48614;BME280;34408;51.426;5.444;2024-03-23T13:06:17;100913.78;;;9.66;57.82
48614;BME280;34408;51.426;5.444;2024-03-23T13:08:44;100903.88;;;9.67;57.98
48614;BME280;34408;51.426;5.444;2024-03-23T13:11:11;100911.06;;;9.73;58.16
48614;BME280;34408;51.426;5.444;2024-03-23T13:13:37;100912.72;;;9.74;58.01
48614;BME280;34408;51.426;5.444;2024-03-23T13:16:04;100907.34;;;9.74;58.75
48614;BME280;34408;51.426;5.444;2024-03-23T13:18:32;100909.81;;;9.75;58.20
48614;BME280;34408;51.426;5.444;2024-03-23T13:20:59;100914.94;;;9.84;57.71
48614;BME280;34408;51.426;5.444;2024-03-23T13:23:33;100911.81;;;9.87;57.73
48614;BME280;34408;51.426;5.444;2024-03-23T13:26:01;100910.06;;;10.05;56.89
48614;BME280;34408;51.426;5.444;2024-03-23T13:28:28;100924.22;;;10.19;56.54
48614;BME280;34408;51.426;5.444;2024-03-23T13:30:55;100922.28;;;10.33;56.12
48614;BME280;34408;51.426;5.444;2024-03-23T13:33:23;100925.56;;;10.35;55.20
48614;BME280;34408;51.426;5.444;2024-03-23T13:35:49;100910.50;;;10.34;54.87
48614;BME280;34408;51.426;5.444;2024-03-23T13:38:18;100898.75;;;10.28;54.09
48614;BME280;34408;51.426;5.444;2024-03-23T13:40:51;100894.84;;;10.49;53.68
48614;BME280;34408;51.426;5.444;2024-03-23T13:43:18;100887.25;;;10.64;53.50
48614;BME280;34408;51.426;5.444;2024-03-23T13:45:44;100893.25;;;10.66;52.89
48614;BME280;34408;51.426;5.444;2024-03-23T13:48:12;100886.38;;;10.70;53.37
48614;BME280;34408;51.426;5.444;2024-03-23T13:50:37;100884.38;;;10.84;53.46
48614;BME280;34408;51.426;5.444;2024-03-23T13:53:04;100877.28;;;10.90;53.31
48614;BME280;34408;51.426;5.444;2024-03-23T13:55:32;100883.72;;;10.89;53.64